sensor_id;sensor_type;location;lat;lon;timestamp;pressure;altitude;pressure_sealevel;temperature;humidity
55610;BME280;41486;52.502;13.486;2023-06-10T00:00:16;101060.38;;;16.56;100.00
55610;BME280;41486;52.502;13.486;2023-06-10T00:02:44;101046.00;;;16.49;100.00
55610;BME280;41486;52.502;13.486;2023-06-10T00:05:12;101054.63;;;16.61;100.00
55610;BME280;41486;52.502;13.486;2023-06-10T00:07:43;101054.72;;;16.69;100.00
55610;BME280;41486;52.502;13.486;2023-06-10T00:10:12;101057.97;;;16.63;100.00
55610;BME280;41486;52.502;13.486;2023-06-10T00:12:42;101061.72;;;16.42;100.00
55610;BME280;41486;52.502;13.486;2023-06-10T00:15:10;101047.66;;;16.22;100.00
55610;BME280;41486;52.502;13.486;2023-06-10T00:17:39;101050.00;;;16.25;100.00
55610;BME280;41486;52.502;13.486;2023-06-10T00:20:08;101052.03;;;16.03;100.00
55610;BME280;41486;52.502;13.486;2023-06-10T00:22:39;101043.38;;;16.01;100.00
55610;BME280;41486;52.502;13.486;2023-06-10T00:25:09;101037.03;;;16.22;100.00
55610;BME280;41486;52.502;13.486;2023-06-10T00:27:38;101033.84;;;16.18;100.00
55610;BME280;41486;52.502;13.486;2023-06-10T00:30:09;101035.84;;;15.87;100.00
55610;BME280;41486;52.502;13.486;2023-06-10T00:32:38;101041.69;;;16.00;100.00
55610;BME280;41486;52.502;13.486;2023-06-10T00:35:07;101033.88;;;15.99;100.00
55610;BME280;41486;52.502;13.486;2023-06-10T00:37:35;101037.91;;;16.03;100.00
55610;BME280;41486;52.502;13.486;2023-06-10T00:40:05;101046.69;;;16.13;100.00
55610;BME280;41486;52.502;13.486;2023-06-10T00:42:35;101045.31;;;15.99;100.00
55610;BME280;41486;52.502;13.486;2023-06-10T00:45:05;101032.78;;;15.82;100.00
55610;BME280;41486;52.502;13.486;2023-06-10T00:47:38;101037.94;;;15.93;100.00
55610;BME280;41486;52.502;13.486;2023-06-10T00:50:07;101038.91;;;16.02;100.00
55610;BME280;41486;52.502;13.486;2023-06-10T00:52:35;101042.66;;;16.09;100.00
55610;BME280;41486;52.502;13.486;2023-06-10T00:55:04;101044.03;;;16.13;100.00
55610;BME280;41486;52.502;13.486;2023-06-10T00:57:32;101045.28;;;16.19;100.00
55610;BME280;41486;52.502;13.486;2023-06-10T01:00:01;101043.09;;;16.04;100.00
55610;BME280;41486;52.502;13.486;2023-06-10T01:02:34;101048.09;;;16.17;100.00
55610;BME280;41486;52.502;13.486;2023-06-10T01:05:06;101049.28;;;15.85;100.00
55610;BME280;41486;52.502;13.486;2023-06-10T01:07:38;101046.31;;;15.78;100.00
55610;BME280;41486;52.502;13.486;2023-06-10T01:10:11;101056.66;;;15.82;100.00
55610;BME280;41486;52.502;13.486;2023-06-10T01:12:46;101060.00;;;16.03;100.00
55610;BME280;41486;52.502;13.486;2023-06-10T01:15:20;101062.38;;;15.77;100.00
55610;BME280;41486;52.502;13.486;2023-06-10T01:17:56;101059.88;;;15.66;100.00
55610;BME280;41486;52.502;13.486;2023-06-10T01:20:27;101048.25;;;15.76;100.00
55610;BME280;41486;52.502;13.486;2023-06-10T01:22:58;101050.66;;;15.60;100.00
55610;BME280;41486;52.502;13.486;2023-06-10T01:25:27;101058.75;;;15.58;100.00
55610;BME280;41486;52.502;13.486;2023-06-10T01:28:03;101052.47;;;15.59;100.00
55610;BME280;41486;52.502;13.486;2023-06-10T01:30:37;101060.97;;;15.34;100.00
55610;BME280;41486;52.502;13.486;2023-06-10T01:33:09;101054.13;;;15.41;100.00
55610;BME280;41486;52.502;13.486;2023-06-10T01:35:40;101062.22;;;15.78;100.00
55610;BME280;41486;52.502;13.486;2023-06-10T01:38:10;101061.84;;;15.34;100.00
55610;BME280;41486;52.502;13.486;2023-06-10T01:40:40;101065.88;;;15.48;100.00
55610;BME280;41486;52.502;13.486;2023-06-10T01:43:08;101060.41;;;15.69;100.00
55610;BME280;41486;52.502;13.486;2023-06-10T01:45:37;101062.09;;;15.51;100.00
55610;BME280;41486;52.502;13.486;2023-06-10T01:48:05;101061.13;;;15.52;100.00
55610;BME280;41486;52.502;13.486;2023-06-10T01:50:33;101063.72;;;15.12;100.00
55610;BME280;41486;52.502;13.486;2023-06-10T01:53:03;101065.31;;;15.25;100.00
55610;BME280;41486;52.502;13.486;2023-06-10T01:55:33;101068.06;;;15.23;100.00
55610;BME280;41486;52.502;13.486;2023-06-10T01:58:01;101072.00;;;15.19;100.00
55610;BME280;41486;52.502;13.486;2023-06-10T02:00:29;101070.47;;;15.26;100.00
55610;BME280;41486;52.502;13.486;2023-06-10T02:02:57;101059.03;;;15.26;100.00
55610;BME280;41486;52.502;13.486;2023-06-10T02:05:25;101072.00;;;15.19;100.00
55610;BME280;41486;52.502;13.486;2023-06-10T02:07:53;101059.81;;;15.07;100.00
55610;BME280;41486;52.502;13.486;2023-06-10T02:10:21;101059.84;;;15.26;100.00
55610;BME280;41486;52.502;13.486;2023-06-10T02:12:51;101064.19;;;15.27;100.00
55610;BME280;41486;52.502;13.486;2023-06-10T02:15:19;101075.50;;;15.29;100.00
55610;BME280;41486;52.502;13.486;2023-06-10T02:17:47;101066.78;;;15.08;100.00
55610;BME280;41486;52.502;13.486;2023-06-10T02:20:16;101066.28;;;15.14;100.00
55610;BME280;41486;52.502;13.486;2023-06-10T02:22:44;101073.09;;;15.17;100.00
55610;BME280;41486;52.502;13.486;2023-06-10T02:25:12;101070.69;;;15.04;100.00
55610;BME280;41486;52.502;13.486;2023-06-10T02:27:40;101072.53;;;15.13;100.00
55610;BME280;41486;52.502;13.486;2023-06-10T02:30:11;101075.13;;;14.93;100.00
55610;BME280;41486;52.502;13.486;2023-06-10T02:32:40;101067.50;;;15.10;100.00
55610;BME280;41486;52.502;13.486;2023-06-10T02:35:08;101083.78;;;14.95;100.00
55610;BME280;41486;52.502;13.486;2023-06-10T02:37:39;101076.56;;;14.97;100.00
55610;BME280;41486;52.502;13.486;2023-06-10T02:40:08;101068.88;;;14.94;100.00
55610;BME280;41486;52.502;13.486;2023-06-10T02:42:37;101073.09;;;15.17;100.00
55610;BME280;41486;52.502;13.486;2023-06-10T02:45:07;101071.56;;;15.14;100.00
55610;BME280;41486;52.502;13.486;2023-06-10T02:47:41;101070.22;;;14.89;100.00
55610;BME280;41486;52.502;13.486;2023-06-10T02:50:11;101073.91;;;14.97;100.00
55610;BME280;41486;52.502;13.486;2023-06-10T02:53:02;101067.50;;;15.00;100.00
55610;BME280;41486;52.502;13.486;2023-06-10T02:55:32;101066.53;;;15.11;100.00
55610;BME280;41486;52.502;13.486;2023-06-10T02:58:03;101075.72;;;15.07;100.00
55610;BME280;41486;52.502;13.486;2023-06-10T03:00:32;101082.91;;;14.85;100.00
55610;BME280;41486;52.502;13.486;2023-06-10T03:03:03;101072.19;;;14.87;100.00
55610;BME280;41486;52.502;13.486;2023-06-10T03:05:39;101069.13;;;14.91;100.00
55610;BME280;41486;52.502;13.486;2023-06-10T03:08:07;101074.31;;;14.93;100.00
55610;BME280;41486;52.502;13.486;2023-06-10T03:10:38;101079.63;;;15.03;100.00
55610;BME280;41486;52.502;13.486;2023-06-10T03:13:08;101076.41;;;14.99;100.00
55610;BME280;41486;52.502;13.486;2023-06-10T03:15:37;101076.00;;;15.04;100.00
55610;BME280;41486;52.502;13.486;2023-06-10T03:18:12;101080.19;;;15.06;100.00
55610;BME280;41486;52.502;13.486;2023-06-10T03:20:41;101075.94;;;14.84;100.00
55610;BME280;41486;52.502;13.486;2023-06-10T03:23:11;101077.13;;;15.11;100.00
55610;BME280;41486;52.502;13.486;2023-06-10T03:25:39;101083.09;;;14.93;100.00
55610;BME280;41486;52.502;13.486;2023-06-10T03:28:11;101070.41;;;14.97;100.00
55610;BME280;41486;52.502;13.486;2023-06-10T03:30:39;101070.97;;;15.01;100.00
55610;BME280;41486;52.502;13.486;2023-06-10T03:33:08;101077.28;;;15.09;100.00
55610;BME280;41486;52.502;13.486;2023-06-10T03:35:39;101081.00;;;15.07;100.00
55610;BME280;41486;52.502;13.486;2023-06-10T03:38:08;101079.31;;;14.96;100.00
55610;BME280;41486;52.502;13.486;2023-06-10T03:40:36;101083.66;;;14.97;100.00
55610;BME280;41486;52.502;13.486;2023-06-10T03:43:05;101078.19;;;14.98;100.00
55610;BME280;41486;52.502;13.486;2023-06-10T03:45:34;101095.13;;;15.17;100.00
55610;BME280;41486;52.502;13.486;2023-06-10T03:48:04;101085.25;;;15.19;100.00
55610;BME280;41486;52.502;13.486;2023-06-10T03:50:43;101089.72;;;15.28;100.00
55610;BME280;41486;52.502;13.486;2023-06-10T03:53:11;101093.28;;;15.08;100.00
55610;BME280;41486;52.502;13.486;2023-06-10T03:55:41;101098.09;;;15.24;100.00
55610;BME280;41486;52.502;13.486;2023-06-10T03:58:10;101087.09;;;14.88;100.00
55610;BME280;41486;52.502;13.486;2023-06-10T04:00:40;101098.59;;;15.08;100.00
55610;BME280;41486;52.502;13.486;2023-06-10T04:03:09;101097.22;;;15.13;100.00
55610;BME280;41486;52.502;13.486;2023-06-10T04:05:46;101096.81;;;15.28;100.00
55610;BME280;41486;52.502;13.486;2023-06-10T04:08:14;101097.78;;;15.27;100.00
55610;BME280;41486;52.502;13.486;2023-06-10T04:10:42;101099.22;;;15.21;100.00
55610;BME280;41486;52.502;13.486;2023-06-10T04:13:11;101101.56;;;15.14;100.00
55610;BME280;41486;52.502;13.486;2023-06-10T04:15:46;101096.56;;;15.31;100.00
55610;BME280;41486;52.502;13.486;2023-06-10T04:18:16;101103.09;;;15.27;100.00
55610;BME280;41486;52.502;13.486;2023-06-10T04:20:47;101100.91;;;15.42;100.00
55610;BME280;41486;52.502;13.486;2023-06-10T04:23:15;101092.22;;;15.40;100.00
55610;BME280;41486;52.502;13.486;2023-06-10T04:25:45;101102.16;;;15.48;100.00
55610;BME280;41486;52.502;13.486;2023-06-10T04:28:14;101096.56;;;15.41;100.00
55610;BME280;41486;52.502;13.486;2023-06-10T04:30:43;101099.06;;;15.42;100.00
55610;BME280;41486;52.502;13.486;2023-06-10T04:33:12;101098.50;;;15.39;100.00
55610;BME280;41486;52.502;13.486;2023-06-10T04:35:40;101106.75;;;15.26;100.00
55610;BME280;41486;52.502;13.486;2023-06-10T04:38:13;101125.31;;;15.26;100.00
55610;BME280;41486;52.502;13.486;2023-06-10T04:40:42;101118.59;;;15.32;100.00
55610;BME280;41486;52.502;13.486;2023-06-10T04:43:11;101121.38;;;15.20;100.00
55610;BME280;41486;52.502;13.486;2023-06-10T04:45:39;101120.69;;;15.28;100.00
55610;BME280;41486;52.502;13.486;2023-06-10T04:48:12;101121.16;;;15.53;100.00
55610;BME280;41486;52.502;13.486;2023-06-10T04:50:40;101113.75;;;15.56;100.00
55610;BME280;41486;52.502;13.486;2023-06-10T04:53:09;101118.38;;;15.64;100.00
55610;BME280;41486;52.502;13.486;2023-06-10T04:55:42;101126.03;;;15.67;100.00
55610;BME280;41486;52.502;13.486;2023-06-10T04:58:10;101129.09;;;15.53;100.00
55610;BME280;41486;52.502;13.486;2023-06-10T05:00:38;101126.03;;;15.67;100.00
55610;BME280;41486;52.502;13.486;2023-06-10T05:03:06;101131.53;;;15.95;100.00
55610;BME280;41486;52.502;13.486;2023-06-10T05:05:34;101126.06;;;15.97;100.00
55610;BME280;41486;52.502;13.486;2023-06-10T05:08:03;101133.03;;;16.07;100.00
55610;BME280;41486;52.502;13.486;2023-06-10T05:10:34;101136.25;;;16.11;100.00
55610;BME280;41486;52.502;13.486;2023-06-10T05:13:03;101132.75;;;16.30;100.00
55610;BME280;41486;52.502;13.486;2023-06-10T05:15:31;101139.53;;;16.52;100.00
55610;BME280;41486;52.502;13.486;2023-06-10T05:17:59;101133.19;;;16.73;100.00
55610;BME280;41486;52.502;13.486;2023-06-10T05:20:29;101130.75;;;16.80;100.00
55610;BME280;41486;52.502;13.486;2023-06-10T05:22:57;101133.97;;;16.83;100.00
55610;BME280;41486;52.502;13.486;2023-06-10T05:25:26;101138.19;;;16.86;100.00
55610;BME280;41486;52.502;13.486;2023-06-10T05:27:54;101130.72;;;16.99;100.00
55610;BME280;41486;52.502;13.486;2023-06-10T05:30:23;101133.75;;;17.32;100.00
55610;BME280;41486;52.502;13.486;2023-06-10T05:32:52;101139.06;;;17.14;100.00
55610;BME280;41486;52.502;13.486;2023-06-10T05:35:20;101138.72;;;17.45;100.00
55610;BME280;41486;52.502;13.486;2023-06-10T05:37:48;101143.22;;;17.81;100.00
55610;BME280;41486;52.502;13.486;2023-06-10T05:40:16;101144.59;;;17.67;100.00
55610;BME280;41486;52.502;13.486;2023-06-10T05:42:44;101141.00;;;17.76;100.00
55610;BME280;41486;52.502;13.486;2023-06-10T05:45:13;101141.28;;;17.91;100.00
55610;BME280;41486;52.502;13.486;2023-06-10T05:47:44;101141.31;;;18.09;100.00
55610;BME280;41486;52.502;13.486;2023-06-10T05:50:12;101138.84;;;18.16;100.00
55610;BME280;41486;52.502;13.486;2023-06-10T05:52:40;101137.63;;;18.28;100.00
55610;BME280;41486;52.502;13.486;2023-06-10T05:55:09;101143.94;;;18.27;100.00
55610;BME280;41486;52.502;13.486;2023-06-10T05:57:38;101138.13;;;18.58;100.00
55610;BME280;41486;52.502;13.486;2023-06-10T06:00:07;101141.91;;;18.48;100.00
55610;BME280;41486;52.502;13.486;2023-06-10T06:02:38;101140.41;;;18.45;100.00
55610;BME280;41486;52.502;13.486;2023-06-10T06:05:08;101145.41;;;18.48;99.80
55610;BME280;41486;52.502;13.486;2023-06-10T06:07:37;101151.00;;;18.37;100.00
55610;BME280;41486;52.502;13.486;2023-06-10T06:10:06;101150.72;;;18.48;99.88
55610;BME280;41486;52.502;13.486;2023-06-10T06:12:34;101156.72;;;18.76;99.03
55610;BME280;41486;52.502;13.486;2023-06-10T06:15:03;101153.72;;;19.06;95.83
55610;BME280;41486;52.502;13.486;2023-06-10T06:17:31;101153.56;;;18.81;97.23
55610;BME280;41486;52.502;13.486;2023-06-10T06:20:00;101157.72;;;18.75;97.38
55610;BME280;41486;52.502;13.486;2023-06-10T06:22:33;101159.50;;;18.93;96.79
55610;BME280;41486;52.502;13.486;2023-06-10T06:25:02;101166.06;;;19.07;96.52
55610;BME280;41486;52.502;13.486;2023-06-10T06:27:30;101164.69;;;19.03;96.02
55610;BME280;41486;52.502;13.486;2023-06-10T06:29:59;101169.66;;;19.32;94.47
55610;BME280;41486;52.502;13.486;2023-06-10T06:32:27;101171.09;;;19.10;95.57
55610;BME280;41486;52.502;13.486;2023-06-10T06:34:55;101176.97;;;19.22;95.38
55610;BME280;41486;52.502;13.486;2023-06-10T06:37:25;101168.44;;;19.10;95.55
55610;BME280;41486;52.502;13.486;2023-06-10T06:40:13;101178.22;;;19.52;93.47
55610;BME280;41486;52.502;13.486;2023-06-10T06:42:42;101184.19;;;19.38;93.59
55610;BME280;41486;52.502;13.486;2023-06-10T06:45:42;101181.06;;;19.08;94.66
55610;BME280;41486;52.502;13.486;2023-06-10T06:48:10;101185.31;;;19.27;94.36
55610;BME280;41486;52.502;13.486;2023-06-10T06:50:38;101189.16;;;19.25;94.66
55610;BME280;41486;52.502;13.486;2023-06-10T06:53:08;101190.72;;;19.44;93.44
55610;BME280;41486;52.502;13.486;2023-06-10T06:55:37;101193.59;;;19.59;92.41
55610;BME280;41486;52.502;13.486;2023-06-10T06:58:06;101189.75;;;19.61;92.07
55610;BME280;41486;52.502;13.486;2023-06-10T07:00:34;101189.78;;;19.78;90.90
55610;BME280;41486;52.502;13.486;2023-06-10T07:03:02;101192.75;;;19.58;91.30
55610;BME280;41486;52.502;13.486;2023-06-10T07:05:30;101192.47;;;19.78;91.00
55610;BME280;41486;52.502;13.486;2023-06-10T07:07:59;101192.53;;;20.02;88.77
55610;BME280;41486;52.502;13.486;2023-06-10T07:10:28;101190.66;;;19.95;89.46
55610;BME280;41486;52.502;13.486;2023-06-10T07:12:57;101193.84;;;19.98;91.09
55610;BME280;41486;52.502;13.486;2023-06-10T07:15:25;101196.34;;;20.25;87.98
55610;BME280;41486;52.502;13.486;2023-06-10T07:17:53;101198.31;;;20.56;86.81
55610;BME280;41486;52.502;13.486;2023-06-10T07:20:22;101192.94;;;20.80;84.86
55610;BME280;41486;52.502;13.486;2023-06-10T07:22:50;101200.16;;;20.55;85.83
55610;BME280;41486;52.502;13.486;2023-06-10T07:25:18;101204.03;;;20.44;86.64
55610;BME280;41486;52.502;13.486;2023-06-10T07:27:47;101202.13;;;20.86;86.03
55610;BME280;41486;52.502;13.486;2023-06-10T07:30:16;101210.88;;;20.47;87.23
55610;BME280;41486;52.502;13.486;2023-06-10T07:32:44;101199.66;;;20.76;85.34
55610;BME280;41486;52.502;13.486;2023-06-10T07:35:13;101208.84;;;20.82;84.67
55610;BME280;41486;52.502;13.486;2023-06-10T07:37:42;101203.25;;;21.00;84.13
55610;BME280;41486;52.502;13.486;2023-06-10T07:40:10;101211.59;;;21.05;83.57
55610;BME280;41486;52.502;13.486;2023-06-10T07:42:38;101210.88;;;21.11;82.91
55610;BME280;41486;52.502;13.486;2023-06-10T07:45:07;101212.28;;;20.99;83.70
55610;BME280;41486;52.502;13.486;2023-06-10T07:47:37;101211.16;;;21.33;82.15
55610;BME280;41486;52.502;13.486;2023-06-10T07:50:06;101214.72;;;21.57;81.47
55610;BME280;41486;52.502;13.486;2023-06-10T07:52:34;101216.19;;;21.68;80.55
55610;BME280;41486;52.502;13.486;2023-06-10T07:55:04;101209.41;;;21.49;81.96
55610;BME280;41486;52.502;13.486;2023-06-10T07:57:33;101216.28;;;21.43;80.21
55610;BME280;41486;52.502;13.486;2023-06-10T08:00:04;101213.09;;;21.48;80.43
55610;BME280;41486;52.502;13.486;2023-06-10T08:02:39;101215.41;;;21.59;79.79
55610;BME280;41486;52.502;13.486;2023-06-10T08:05:08;101212.34;;;21.62;78.21
55610;BME280;41486;52.502;13.486;2023-06-10T08:07:37;101212.78;;;22.44;76.56
55610;BME280;41486;52.502;13.486;2023-06-10T08:10:06;101209.94;;;22.22;75.66
55610;BME280;41486;52.502;13.486;2023-06-10T08:12:35;101211.00;;;22.13;75.03
55610;BME280;41486;52.502;13.486;2023-06-10T08:15:04;101212.13;;;22.42;74.51
55610;BME280;41486;52.502;13.486;2023-06-10T08:17:33;101222.78;;;22.50;73.97
55610;BME280;41486;52.502;13.486;2023-06-10T08:20:03;101225.84;;;22.62;72.22
55610;BME280;41486;52.502;13.486;2023-06-10T08:22:33;101221.91;;;22.88;69.91
55610;BME280;41486;52.502;13.486;2023-06-10T08:25:02;101224.59;;;23.18;68.93
55610;BME280;41486;52.502;13.486;2023-06-10T08:27:30;101223.56;;;23.34;67.21
55610;BME280;41486;52.502;13.486;2023-06-10T08:29:58;101229.97;;;23.18;66.88
55610;BME280;41486;52.502;13.486;2023-06-10T08:32:27;101233.09;;;23.21;67.66
55610;BME280;41486;52.502;13.486;2023-06-10T08:34:56;101228.84;;;23.63;65.87
55610;BME280;41486;52.502;13.486;2023-06-10T08:37:25;101231.31;;;23.28;66.32
55610;BME280;41486;52.502;13.486;2023-06-10T08:39:53;101230.50;;;23.43;66.23
55610;BME280;41486;52.502;13.486;2023-06-10T08:42:24;101232.72;;;23.39;65.62
55610;BME280;41486;52.502;13.486;2023-06-10T08:44:55;101244.88;;;23.57;65.95
55610;BME280;41486;52.502;13.486;2023-06-10T08:47:25;101235.47;;;23.46;67.45
55610;BME280;41486;52.502;13.486;2023-06-10T08:49:54;101244.84;;;23.50;68.05
55610;BME280;41486;52.502;13.486;2023-06-10T08:52:35;101235.03;;;23.64;66.73
55610;BME280;41486;52.502;13.486;2023-06-10T08:55:06;101238.41;;;23.88;66.64
55610;BME280;41486;52.502;13.486;2023-06-10T08:57:37;101249.91;;;23.97;66.40
55610;BME280;41486;52.502;13.486;2023-06-10T09:00:06;101241.72;;;24.05;66.12
55610;BME280;41486;52.502;13.486;2023-06-10T09:02:35;101243.94;;;23.79;68.35
55610;BME280;41486;52.502;13.486;2023-06-10T09:05:05;101243.44;;;24.13;66.75
55610;BME280;41486;52.502;13.486;2023-06-10T09:07:35;101235.22;;;24.21;65.91
55610;BME280;41486;52.502;13.486;2023-06-10T09:10:04;101237.50;;;23.96;67.16
55610;BME280;41486;52.502;13.486;2023-06-10T09:12:35;101241.69;;;23.83;65.92
55610;BME280;41486;52.502;13.486;2023-06-10T09:15:05;101232.59;;;24.28;65.18
55610;BME280;41486;52.502;13.486;2023-06-10T09:17:34;101233.84;;;24.25;64.07
55610;BME280;41486;52.502;13.486;2023-06-10T09:20:05;101239.56;;;24.72;62.14
55610;BME280;41486;52.502;13.486;2023-06-10T09:22:38;101239.84;;;24.84;61.71
55610;BME280;41486;52.502;13.486;2023-06-10T09:25:08;101240.00;;;24.69;62.85
55610;BME280;41486;52.502;13.486;2023-06-10T09:27:44;101237.63;;;24.59;63.16
55610;BME280;41486;52.502;13.486;2023-06-10T09:30:25;101237.31;;;24.47;63.56
55610;BME280;41486;52.502;13.486;2023-06-10T09:32:55;101248.13;;;24.54;62.27
55610;BME280;41486;52.502;13.486;2023-06-10T09:35:24;101242.44;;;24.42;63.14
55610;BME280;41486;52.502;13.486;2023-06-10T09:37:56;101248.88;;;24.69;62.36
55610;BME280;41486;52.502;13.486;2023-06-10T09:40:24;101245.97;;;24.42;62.75
55610;BME280;41486;52.502;13.486;2023-06-10T09:42:54;101255.38;;;24.32;62.94
55610;BME280;41486;52.502;13.486;2023-06-10T09:45:29;101247.41;;;24.67;60.99
55610;BME280;41486;52.502;13.486;2023-06-10T09:47:58;101253.63;;;23.96;63.08
55610;BME280;41486;52.502;13.486;2023-06-10T09:50:27;101255.72;;;23.63;65.19
55610;BME280;41486;52.502;13.486;2023-06-10T09:52:57;101256.19;;;23.52;65.38
55610;BME280;41486;52.502;13.486;2023-06-10T09:55:25;101263.44;;;23.52;66.34
55610;BME280;41486;52.502;13.486;2023-06-10T09:57:53;101256.84;;;23.91;64.11
55610;BME280;41486;52.502;13.486;2023-06-10T10:00:22;101250.03;;;23.73;63.89
55610;BME280;41486;52.502;13.486;2023-06-10T10:02:54;101253.91;;;23.49;64.51
55610;BME280;41486;52.502;13.486;2023-06-10T10:05:22;101255.16;;;23.90;61.53
55610;BME280;41486;52.502;13.486;2023-06-10T10:07:51;101255.75;;;23.85;59.77
55610;BME280;41486;52.502;13.486;2023-06-10T10:10:22;101254.81;;;23.93;58.46
55610;BME280;41486;52.502;13.486;2023-06-10T10:12:53;101259.44;;;24.21;58.21
55610;BME280;41486;52.502;13.486;2023-06-10T10:24:07;101259.53;;;24.56;54.36
55610;BME280;41486;52.502;13.486;2023-06-10T10:26:39;101256.41;;;24.52;53.70
55610;BME280;41486;52.502;13.486;2023-06-10T10:29:14;101259.97;;;24.60;53.01
55610;BME280;41486;52.502;13.486;2023-06-10T10:31:44;101266.09;;;24.75;52.89
55610;BME280;41486;52.502;13.486;2023-06-10T10:34:20;101255.25;;;24.40;53.76
55610;BME280;41486;52.502;13.486;2023-06-10T10:36:50;101256.63;;;24.57;53.41
55610;BME280;41486;52.502;13.486;2023-06-10T10:39:18;101249.50;;;25.00;51.50
55610;BME280;41486;52.502;13.486;2023-06-10T10:41:49;101241.34;;;25.83;48.37
55610;BME280;41486;52.502;13.486;2023-06-10T10:44:18;101238.69;;;26.10;45.92
55610;BME280;41486;52.502;13.486;2023-06-10T10:46:49;101240.97;;;25.31;46.79
55610;BME280;41486;52.502;13.486;2023-06-10T10:49:19;101233.81;;;25.59;46.94
55610;BME280;41486;52.502;13.486;2023-06-10T10:51:55;101234.34;;;25.34;46.21
55610;BME280;41486;52.502;13.486;2023-06-10T10:54:31;101222.53;;;25.35;45.42
55610;BME280;41486;52.502;13.486;2023-06-10T10:57:15;101220.44;;;25.37;45.44
55610;BME280;41486;52.502;13.486;2023-06-10T10:59:44;101221.84;;;25.26;45.59
55610;BME280;41486;52.502;13.486;2023-06-10T11:02:19;101222.78;;;25.40;45.26
55610;BME280;41486;52.502;13.486;2023-06-10T11:05:01;101222.25;;;25.78;44.77
55610;BME280;41486;52.502;13.486;2023-06-10T11:07:30;101214.44;;;26.37;43.40
55610;BME280;41486;52.502;13.486;2023-06-10T11:09:59;101216.09;;;26.11;42.10
55610;BME280;41486;52.502;13.486;2023-06-10T11:12:59;101210.25;;;26.61;42.08
55610;BME280;41486;52.502;13.486;2023-06-10T11:15:30;101217.38;;;27.67;40.04
55610;BME280;41486;52.502;13.486;2023-06-10T11:18:12;101219.81;;;29.14;37.67
55610;BME280;41486;52.502;13.486;2023-06-10T11:20:55;101221.13;;;29.11;37.70
55610;BME280;41486;52.502;13.486;2023-06-10T11:23:41;101216.19;;;29.69;36.92
55610;BME280;41486;52.502;13.486;2023-06-10T11:26:15;101218.44;;;31.26;34.42
55610;BME280;41486;52.502;13.486;2023-06-10T11:29:07;101219.03;;;31.28;33.69
55610;BME280;41486;52.502;13.486;2023-06-10T11:31:44;101216.19;;;30.11;35.48
55610;BME280;41486;52.502;13.486;2023-06-10T11:34:13;101213.94;;;30.91;34.46
55610;BME280;41486;52.502;13.486;2023-06-10T11:36:42;101222.56;;;30.29;34.22
55610;BME280;41486;52.502;13.486;2023-06-10T11:39:12;101216.19;;;30.23;33.71
55610;BME280;41486;52.502;13.486;2023-06-10T11:41:41;101224.25;;;30.65;32.32
55610;BME280;41486;52.502;13.486;2023-06-10T11:44:11;101216.53;;;30.15;33.66
55610;BME280;41486;52.502;13.486;2023-06-10T11:46:47;101211.34;;;30.01;34.21
55610;BME280;41486;52.502;13.486;2023-06-10T11:49:15;101221.91;;;29.91;35.30
55610;BME280;41486;52.502;13.486;2023-06-10T11:51:44;101224.56;;;30.10;36.38
55610;BME280;41486;52.502;13.486;2023-06-10T11:54:17;101226.50;;;31.79;34.56
55610;BME280;41486;52.502;13.486;2023-06-10T11:56:46;101233.50;;;31.46;35.87
55610;BME280;41486;52.502;13.486;2023-06-10T11:59:15;101225.06;;;30.66;35.33
55610;BME280;41486;52.502;13.486;2023-06-10T12:01:44;101221.16;;;29.72;36.93
55610;BME280;41486;52.502;13.486;2023-06-10T12:04:15;101225.41;;;29.00;37.04
55610;BME280;41486;52.502;13.486;2023-06-10T12:06:46;101215.72;;;30.86;34.52
55610;BME280;41486;52.502;13.486;2023-06-10T12:09:17;101223.63;;;30.28;34.62
55610;BME280;41486;52.502;13.486;2023-06-10T12:11:54;101218.91;;;30.23;35.17
55610;BME280;41486;52.502;13.486;2023-06-10T12:14:52;101214.22;;;29.76;36.30
55610;BME280;41486;52.502;13.486;2023-06-10T12:17:36;101209.66;;;29.27;37.94
55610;BME280;41486;52.502;13.486;2023-06-10T12:20:06;101210.34;;;29.23;38.07
55610;BME280;41486;52.502;13.486;2023-06-10T12:22:39;101214.28;;;28.64;39.78
55610;BME280;41486;52.502;13.486;2023-06-10T12:25:08;101205.66;;;28.56;40.32
55610;BME280;41486;52.502;13.486;2023-06-10T12:27:38;101212.56;;;29.45;39.55
55610;BME280;41486;52.502;13.486;2023-06-10T12:30:10;101201.50;;;28.09;41.70
55610;BME280;41486;52.502;13.486;2023-06-10T12:32:47;101206.59;;;28.43;41.75
55610;BME280;41486;52.502;13.486;2023-06-10T12:35:17;101198.94;;;29.51;40.08
55610;BME280;41486;52.502;13.486;2023-06-10T12:37:54;101187.63;;;29.05;40.58
55610;BME280;41486;52.502;13.486;2023-06-10T12:40:26;101190.22;;;28.38;41.75
55610;BME280;41486;52.502;13.486;2023-06-10T12:42:55;101185.59;;;28.82;41.34
55610;BME280;41486;52.502;13.486;2023-06-10T12:45:28;101186.66;;;29.00;41.42
55610;BME280;41486;52.502;13.486;2023-06-10T12:48:07;101181.84;;;29.02;42.01
55610;BME280;41486;52.502;13.486;2023-06-10T12:50:37;101177.03;;;29.65;40.79
55610;BME280;41486;52.502;13.486;2023-06-10T12:53:06;101173.34;;;30.01;40.02
55610;BME280;41486;52.502;13.486;2023-06-10T12:55:34;101168.84;;;29.41;41.12
55610;BME280;41486;52.502;13.486;2023-06-10T12:58:03;101167.81;;;30.08;39.08
55610;BME280;41486;52.502;13.486;2023-06-10T13:00:32;101162.22;;;30.74;38.48